Time;durP1;ratioP1;P1;durP2;ratioP2;P2;SDS_P1;SDS_P2;PMS_P1;PMS_P2;Temp;Humidity;BMP_temperature;BMP_pressure;BME280_temperature;BME280_humidity;BME280_pressure;Samples;Min_cycle;Max_cycle;Signal;HPM_P1;HPM_P2
2022/07/18 00:00:35;;;;;;;;;;;17.20;99.90;;;;;;5042102;28;20003;-69
2022/07/18 00:03:02;;;;;;;;;;;17.20;99.90;;;;;;5033369;28;19986;-67
2022/07/18 00:05:29;;;;;;;;;;;17.20;99.90;;;;;;5040982;28;19997;-68
2022/07/18 00:07:55;;;;;;;;;;;17.10;99.90;;;;;;5041833;28;20023;-68
2022/07/18 00:10:22;;;;;;;;;;;17.10;99.90;;;;;;5047526;28;20315;-67
2022/07/18 00:12:50;;;;;;;;;;;17.10;99.90;;;;;;5040219;28;20295;-68
2022/07/18 00:15:17;;;;;;;;;;;17.10;99.90;;;;;;5040685;28;20024;-68
2022/07/18 00:17:44;;;;;;;;;;;17.30;99.90;;;;;;5043210;28;20020;-68
2022/07/18 00:20:11;;;;;;;;;;;17.20;99.90;;;;;;5039392;28;19975;-68
2022/07/18 00:22:38;;;;;;;;;;;17.20;99.90;;;;;;5041310;28;20023;-69
2022/07/18 00:25:05;;;;;;;;;;;17.10;99.90;;;;;;5046068;28;19967;-69
2022/07/18 00:27:32;;;;;;;;;;;17.00;99.90;;;;;;5049262;28;19932;-68
2022/07/18 00:30:00;;;;;;;;;;;17.00;99.90;;;;;;5044633;28;19925;-68
2022/07/18 00:32:27;;;;;;;;;;;17.00;99.90;;;;;;5045809;28;20367;-68
2022/07/18 00:34:53;;;;;;;;;;;17.00;99.90;;;;;;5040288;28;19971;-68
2022/07/18 00:37:20;;;;;;;;;;;17.00;99.90;;;;;;5041403;28;20049;-67
2022/07/18 00:39:47;;;;;;;;;;;16.90;99.90;;;;;;5039670;28;19929;-67
2022/07/18 00:42:14;;;;;;;;;;;16.90;99.90;;;;;;5049348;28;19947;-67
2022/07/18 00:44:40;;;;;;;;;;;16.90;99.90;;;;;;5039536;28;20031;-70
2022/07/18 00:47:08;;;;;;;;;;;16.90;99.90;;;;;;5042312;28;20414;-69
2022/07/18 00:49:35;;;;;;;;;;;16.90;99.90;;;;;;5042045;28;20015;-67
2022/07/18 00:52:02;;;;;;;;;;;16.80;99.90;;;;;;5043025;28;19968;-68
2022/07/18 00:54:31;;;;;;;;;;;16.60;99.90;;;;;;5043132;28;19925;-69
2022/07/18 00:56:57;;;;;;;;;;;16.50;99.90;;;;;;5042946;28;19979;-67
2022/07/18 01:01:42;;;;;;;;;;;16.40;99.90;;;;;;5042232;28;20059;-69
2022/07/18 01:02:12;;;;;;;;;;;16.40;99.90;;;;;;5041824;28;19952;-69
2022/07/18 01:04:38;;;;;;;;;;;16.40;99.90;;;;;;5037827;28;19940;-69
2022/07/18 01:07:08;;;;;;;;;;;16.30;99.90;;;;;;5042149;28;19987;-69
2022/07/18 01:09:34;;;;;;;;;;;16.20;99.90;;;;;;5040408;28;19929;-69
2022/07/18 01:12:01;;;;;;;;;;;16.20;99.90;;;;;;5042048;28;19928;-69
2022/07/18 01:14:28;;;;;;;;;;;16.20;99.90;;;;;;5042638;28;20028;-69
2022/07/18 01:16:55;;;;;;;;;;;16.20;99.90;;;;;;5042365;28;19994;-69
2022/07/18 01:19:23;;;;;;;;;;;16.20;99.90;;;;;;5040833;28;19961;-69
2022/07/18 01:21:51;;;;;;;;;;;16.10;99.90;;;;;;5041246;28;19937;-70
2022/07/18 01:24:18;;;;;;;;;;;16.10;99.90;;;;;;5041270;28;20016;-70
2022/07/18 01:26:44;;;;;;;;;;;16.10;99.90;;;;;;5047525;28;20347;-69
2022/07/18 01:29:11;;;;;;;;;;;16.10;99.90;;;;;;5042998;28;19925;-67
2022/07/18 01:31:38;;;;;;;;;;;16.10;99.90;;;;;;5044753;28;20410;-69
2022/07/18 01:34:04;;;;;;;;;;;16.00;99.90;;;;;;5043837;28;19968;-69
2022/07/18 01:36:31;;;;;;;;;;;15.90;99.90;;;;;;5041215;28;19976;-69
2022/07/18 01:38:59;;;;;;;;;;;15.90;99.90;;;;;;5041576;28;21906;-68
2022/07/18 01:41:26;;;;;;;;;;;15.90;99.90;;;;;;5041274;28;20015;-69
2022/07/18 01:43:52;;;;;;;;;;;15.90;99.90;;;;;;5039889;28;20472;-69
2022/07/18 01:46:19;;;;;;;;;;;15.90;99.90;;;;;;5047699;28;20029;-67
2022/07/18 01:48:46;;;;;;;;;;;15.80;99.90;;;;;;5041528;28;19925;-68
2022/07/18 01:51:12;;;;;;;;;;;15.70;99.90;;;;;;5041601;28;19932;-67
2022/07/18 01:53:40;;;;;;;;;;;15.70;99.90;;;;;;5040547;28;19932;-68
2022/07/18 01:56:08;;;;;;;;;;;15.70;99.90;;;;;;5045061;28;19967;-68
2022/07/18 01:58:35;;;;;;;;;;;15.70;99.90;;;;;;5046721;28;19931;-67
2022/07/18 02:01:01;;;;;;;;;;;15.70;99.90;;;;;;5038551;28;19982;-67
2022/07/18 02:03:28;;;;;;;;;;;15.70;99.90;;;;;;5040836;28;20388;-67
2022/07/18 02:05:55;;;;;;;;;;;15.60;99.90;;;;;;5037807;28;19937;-68
2022/07/18 02:08:22;;;;;;;;;;;15.50;99.90;;;;;;5041320;28;20042;-67
2022/07/18 02:10:48;;;;;;;;;;;15.60;99.90;;;;;;5040076;28;19925;-68
2022/07/18 02:13:17;;;;;;;;;;;15.60;99.90;;;;;;5040459;28;20471;-68
2022/07/18 02:15:44;;;;;;;;;;;15.50;99.90;;;;;;5042550;28;19931;-67
2022/07/18 02:18:10;;;;;;;;;;;15.40;99.90;;;;;;5046096;28;19976;-67
2022/07/18 02:20:38;;;;;;;;;;;15.20;99.90;;;;;;5038675;28;20395;-68
2022/07/18 02:23:05;;;;;;;;;;;15.10;99.90;;;;;;5050338;28;19925;-67
2022/07/18 02:25:31;;;;;;;;;;;15.00;99.90;;;;;;5051258;28;19928;-68
2022/07/18 02:27:58;;;;;;;;;;;15.10;99.90;;;;;;5049939;28;19964;-68
2022/07/18 02:30:26;;;;;;;;;;;15.10;99.90;;;;;;5046327;28;19932;-67
2022/07/18 02:32:55;;;;;;;;;;;15.20;99.90;;;;;;5052214;28;19986;-67
2022/07/18 02:35:21;;;;;;;;;;;15.20;99.90;;;;;;5047461;28;19999;-68
2022/07/18 02:37:48;;;;;;;;;;;15.30;99.90;;;;;;5043545;28;20455;-69
2022/07/18 02:40:15;;;;;;;;;;;15.30;99.90;;;;;;5048552;28;20011;-67
2022/07/18 02:42:41;;;;;;;;;;;15.40;99.90;;;;;;5044993;28;20027;-67
2022/07/18 02:45:09;;;;;;;;;;;15.30;99.90;;;;;;5044207;28;19931;-68
2022/07/18 02:47:37;;;;;;;;;;;15.30;99.90;;;;;;5046143;28;19979;-67
2022/07/18 02:50:03;;;;;;;;;;;15.20;99.90;;;;;;5042892;28;20015;-67
2022/07/18 02:52:30;;;;;;;;;;;15.20;99.90;;;;;;5044436;28;19956;-67
2022/07/18 02:54:57;;;;;;;;;;;15.10;99.90;;;;;;5040225;28;19955;-67
2022/07/18 02:57:24;;;;;;;;;;;15.10;99.90;;;;;;5042166;28;20379;-67
2022/07/18 02:59:51;;;;;;;;;;;15.10;99.90;;;;;;5043167;28;19925;-67
2022/07/18 03:02:17;;;;;;;;;;;15.10;99.90;;;;;;5044441;28;19925;-67
2022/07/18 03:04:45;;;;;;;;;;;15.20;99.90;;;;;;5043247;28;20027;-67
2022/07/18 03:07:12;;;;;;;;;;;15.20;99.90;;;;;;5043245;28;20036;-67
2022/07/18 03:09:39;;;;;;;;;;;15.30;99.90;;;;;;5042142;28;19935;-67
2022/07/18 03:12:05;;;;;;;;;;;15.30;99.90;;;;;;5049406;28;19956;-67
2022/07/18 03:14:32;;;;;;;;;;;15.30;99.90;;;;;;5042101;28;19932;-67
2022/07/18 03:16:59;;;;;;;;;;;15.30;99.90;;;;;;5044404;28;20344;-67
2022/07/18 03:19:25;;;;;;;;;;;15.40;99.90;;;;;;5042355;28;19998;-67
2022/07/18 03:21:53;;;;;;;;;;;15.40;99.90;;;;;;5043508;28;20050;-68
2022/07/18 03:24:20;;;;;;;;;;;15.40;99.90;;;;;;5045836;28;20036;-67
2022/07/18 03:26:47;;;;;;;;;;;15.30;99.90;;;;;;5048768;28;19952;-68
2022/07/18 03:29:13;;;;;;;;;;;15.20;99.90;;;;;;5042338;28;20456;-68
2022/07/18 03:31:40;;;;;;;;;;;15.00;99.90;;;;;;5044981;28;20023;-68
2022/07/18 03:34:07;;;;;;;;;;;15.10;99.90;;;;;;5041452;28;19925;-68
2022/07/18 03:36:34;;;;;;;;;;;15.10;99.90;;;;;;5042828;28;20388;-68
2022/07/18 03:39:03;;;;;;;;;;;15.10;99.90;;;;;;5040496;28;20396;-68
2022/07/18 03:41:30;;;;;;;;;;;15.00;99.90;;;;;;5043137;28;19929;-68
2022/07/18 03:43:57;;;;;;;;;;;15.00;99.90;;;;;;5040253;28;20011;-68
2022/07/18 03:46:24;;;;;;;;;;;15.00;99.90;;;;;;5042231;28;20269;-67
2022/07/18 03:48:51;;;;;;;;;;;14.90;99.90;;;;;;5042063;28;19929;-68
2022/07/18 03:51:17;;;;;;;;;;;14.90;99.90;;;;;;5042740;28;19948;-68
2022/07/18 03:53:44;;;;;;;;;;;14.90;99.90;;;;;;5041964;28;19972;-68
2022/07/18 03:56:12;;;;;;;;;;;14.90;99.90;;;;;;5042778;28;19982;-68
2022/07/18 03:58:39;;;;;;;;;;;14.90;99.90;;;;;;5047278;28;20015;-68
2022/07/18 04:01:05;;;;;;;;;;;14.90;99.90;;;;;;5047128;28;20016;-68
2022/07/18 04:03:32;;;;;;;;;;;14.90;99.90;;;;;;5043006;28;19928;-68
2022/07/18 04:05:59;;;;;;;;;;;14.80;99.90;;;;;;5039921;28;19925;-68
2022/07/18 04:08:26;;;;;;;;;;;14.80;99.90;;;;;;5046092;28;19931;-68
2022/07/18 04:10:53;;;;;;;;;;;14.80;99.90;;;;;;5041808;28;19929;-67
2022/07/18 04:13:21;;;;;;;;;;;14.80;99.90;;;;;;5043503;28;20060;-67
2022/07/18 04:15:47;;;;;;;;;;;14.90;99.90;;;;;;5041729;28;20551;-68
2022/07/18 04:18:14;;;;;;;;;;;14.90;99.90;;;;;;5037821;28;20024;-68
2022/07/18 04:20:41;;;;;;;;;;;15.00;99.90;;;;;;5042118;28;20354;-68
2022/07/18 04:23:09;;;;;;;;;;;15.00;99.90;;;;;;5046559;28;19925;-67
2022/07/18 04:25:36;;;;;;;;;;;15.10;99.90;;;;;;5049308;28;19928;-67
2022/07/18 04:28:03;;;;;;;;;;;15.10;99.90;;;;;;5049406;28;20303;-67
2022/07/18 04:30:32;;;;;;;;;;;15.20;99.90;;;;;;5044958;28;19991;-66
2022/07/18 04:32:59;;;;;;;;;;;15.20;99.90;;;;;;5047254;28;20031;-68
2022/07/18 04:35:25;;;;;;;;;;;15.30;99.90;;;;;;5043967;28;19928;-67
2022/07/18 04:37:52;;;;;;;;;;;15.40;99.90;;;;;;5045173;28;20463;-68
2022/07/18 04:40:19;;;;;;;;;;;15.40;99.90;;;;;;5042311;28;19925;-67
2022/07/18 04:42:46;;;;;;;;;;;15.40;99.90;;;;;;5045314;28;21100;-68
2022/07/18 04:45:13;;;;;;;;;;;15.40;99.90;;;;;;5047897;28;19971;-68
2022/07/18 04:47:41;;;;;;;;;;;15.40;99.90;;;;;;5046968;28;19964;-68
2022/07/18 04:50:08;;;;;;;;;;;15.50;99.90;;;;;;5048426;28;20012;-67
2022/07/18 04:52:38;;;;;;;;;;;15.60;99.90;;;;;;5049874;28;20020;-67
2022/07/18 04:55:06;;;;;;;;;;;15.80;99.90;;;;;;5035888;28;20465;-68
2022/07/18 04:57:32;;;;;;;;;;;16.10;99.90;;;;;;5029777;28;19939;-68
2022/07/18 04:59:59;;;;;;;;;;;16.30;99.90;;;;;;5039279;28;20277;-67
2022/07/18 05:02:26;;;;;;;;;;;16.40;99.90;;;;;;5046017;28;19924;-68
2022/07/18 05:04:54;;;;;;;;;;;16.40;99.90;;;;;;5047584;28;19929;-68
2022/07/18 05:07:20;;;;;;;;;;;16.50;99.90;;;;;;5047023;28;19969;-68
2022/07/18 05:09:47;;;;;;;;;;;16.70;99.90;;;;;;5042854;28;19936;-68
2022/07/18 05:12:14;;;;;;;;;;;16.70;99.90;;;;;;5049945;28;20024;-67
2022/07/18 05:14:40;;;;;;;;;;;16.80;99.90;;;;;;5048476;28;19925;-67
2022/07/18 05:17:07;;;;;;;;;;;17.00;99.90;;;;;;5048374;28;20027;-67
2022/07/18 05:19:34;;;;;;;;;;;17.10;99.90;;;;;;5044889;28;20307;-66
2022/07/18 05:22:02;;;;;;;;;;;17.20;99.90;;;;;;5045735;28;19978;-65
2022/07/18 05:24:28;;;;;;;;;;;17.20;99.90;;;;;;5049654;28;20456;-65
2022/07/18 05:26:55;;;;;;;;;;;17.30;99.90;;;;;;5049421;28;20358;-65
2022/07/18 05:29:22;;;;;;;;;;;17.40;99.90;;;;;;5045833;28;20040;-66
2022/07/18 05:31:48;;;;;;;;;;;17.40;99.90;;;;;;5046626;28;20372;-68
2022/07/18 05:34:15;;;;;;;;;;;17.40;99.90;;;;;;5042549;28;19952;-66
2022/07/18 05:36:42;;;;;;;;;;;17.50;99.90;;;;;;5047820;28;19971;-66
2022/07/18 05:39:10;;;;;;;;;;;17.40;99.90;;;;;;5045824;28;20398;-67
2022/07/18 05:41:37;;;;;;;;;;;17.50;99.90;;;;;;5047226;28;19931;-67
2022/07/18 05:44:03;;;;;;;;;;;17.60;99.90;;;;;;5044261;28;19929;-67
2022/07/18 05:46:30;;;;;;;;;;;17.80;99.90;;;;;;5048813;28;19999;-67
2022/07/18 05:48:57;;;;;;;;;;;17.90;99.90;;;;;;5036467;28;20007;-67
2022/07/18 05:51:23;;;;;;;;;;;18.10;99.90;;;;;;5046499;28;20012;-66
2022/07/18 05:53:50;;;;;;;;;;;18.20;99.90;;;;;;5047872;28;19960;-67
2022/07/18 05:56:18;;;;;;;;;;;18.50;99.90;;;;;;5046573;28;20097;-66
2022/07/18 05:58:45;;;;;;;;;;;18.60;99.90;;;;;;5051797;28;19933;-66
2022/07/18 06:01:16;;;;;;;;;;;18.70;99.90;;;;;;5053597;28;20023;-66
2022/07/18 06:03:43;;;;;;;;;;;19.00;99.90;;;;;;5049946;28;20323;-66
2022/07/18 06:06:10;;;;;;;;;;;20.20;99.50;;;;;;5052660;28;20012;-67
2022/07/18 06:08:36;;;;;;;;;;;22.30;95.80;;;;;;5052023;28;19968;-67
2022/07/18 06:11:03;;;;;;;;;;;23.70;89.20;;;;;;5050087;28;19963;-66
2022/07/18 06:13:32;;;;;;;;;;;24.40;77.80;;;;;;5053592;28;19925;-67
2022/07/18 06:15:58;;;;;;;;;;;25.50;67.30;;;;;;5049571;28;19925;-67
2022/07/18 06:18:25;;;;;;;;;;;27.00;58.10;;;;;;5051687;28;20363;-67
2022/07/18 06:20:52;;;;;;;;;;;27.70;52.90;;;;;;5050675;28;20372;-67
2022/07/18 06:23:19;;;;;;;;;;;28.60;47.80;;;;;;5053491;28;19986;-67
2022/07/18 06:25:46;;;;;;;;;;;28.60;46.80;;;;;;5049463;28;19925;-67
2022/07/18 06:28:12;;;;;;;;;;;27.30;60.10;;;;;;5050888;28;19928;-66
2022/07/18 06:30:40;;;;;;;;;;;27.20;56.10;;;;;;5050283;28;19932;-67
2022/07/18 06:33:07;;;;;;;;;;;28.10;53.90;;;;;;5052537;28;19924;-68
2022/07/18 06:35:34;;;;;;;;;;;28.70;53.00;;;;;;5049850;28;19999;-68
2022/07/18 06:38:01;;;;;;;;;;;29.20;50.30;;;;;;5051407;28;20378;-68
2022/07/18 06:40:27;;;;;;;;;;;28.00;48.70;;;;;;5048741;28;20016;-67
2022/07/18 06:42:54;;;;;;;;;;;26.80;27.90;;;;;;5047164;28;19968;-67
2022/07/18 06:45:21;;;;;;;;;;;25.90;29.30;;;;;;5046575;28;20015;-67
2022/07/18 06:47:49;;;;;;;;;;;25.30;31.20;;;;;;5052196;28;19931;-67
2022/07/18 06:50:16;;;;;;;;;;;24.80;32.90;;;;;;5051233;28;19925;-68
2022/07/18 06:52:43;;;;;;;;;;;25.20;35.00;;;;;;5050725;28;20043;-69
2022/07/18 06:55:11;;;;;;;;;;;27.10;32.00;;;;;;5051087;28;20027;-68
2022/07/18 06:57:37;;;;;;;;;;;28.60;29.20;;;;;;5049071;28;19925;-68
2022/07/18 07:00:05;;;;;;;;;;;29.60;26.70;;;;;;5049125;28;20007;-68
2022/07/18 07:02:32;;;;;;;;;;;30.60;25.30;;;;;;5052876;28;19935;-68
2022/07/18 07:05:00;;;;;;;;;;;31.70;23.70;;;;;;5050090;28;20288;-68
2022/07/18 07:07:29;;;;;;;;;;;32.70;21.40;;;;;;5048464;28;19925;-68
2022/07/18 07:09:55;;;;;;;;;;;33.50;19.60;;;;;;5049321;28;19925;-68
2022/07/18 07:12:22;;;;;;;;;;;33.90;16.70;;;;;;5048851;28;19941;-68
2022/07/18 07:14:48;;;;;;;;;;;33.60;15.80;;;;;;5046211;28;19967;-68
2022/07/18 07:17:15;;;;;;;;;;;33.00;16.70;;;;;;5045174;28;20007;-68
2022/07/18 07:19:42;;;;;;;;;;;32.50;16.80;;;;;;5048090;28;19932;-69
2022/07/18 07:22:10;;;;;;;;;;;32.50;16.90;;;;;;5048472;28;20020;-69
2022/07/18 07:24:38;;;;;;;;;;;33.00;15.80;;;;;;5045926;28;20300;-69
2022/07/18 07:27:05;;;;;;;;;;;33.80;14.80;;;;;;5050183;28;19933;-68
2022/07/18 07:29:31;;;;;;;;;;;34.20;13.20;;;;;;5049948;28;19982;-67
2022/07/18 07:31:59;;;;;;;;;;;33.90;12.90;;;;;;5047725;28;19952;-67
2022/07/18 07:34:25;;;;;;;;;;;33.10;13.20;;;;;;5047399;28;19979;-68
2022/07/18 07:36:52;;;;;;;;;;;32.90;13.70;;;;;;5048920;28;19971;-67
2022/07/18 07:39:20;;;;;;;;;;;32.90;13.50;;;;;;5047351;28;19932;-68
2022/07/18 07:41:47;;;;;;;;;;;33.40;12.50;;;;;;5051247;28;19959;-68
2022/07/18 07:44:14;;;;;;;;;;;34.50;10.70;;;;;;5049157;28;20020;-68
2022/07/18 07:46:41;;;;;;;;;;;35.00;9.30;;;;;;5035878;28;19929;-67
2022/07/18 07:49:07;;;;;;;;;;;35.90;7.70;;;;;;5043880;28;20578;-68
2022/07/18 07:51:34;;;;;;;;;;;36.00;6.00;;;;;;5048200;28;19979;-68
2022/07/18 07:54:01;;;;;;;;;;;35.60;6.40;;;;;;5033460;28;20408;-68
2022/07/18 07:56:28;;;;;;;;;;;;;;;;;;5050315;28;20560;-68
2022/07/18 07:58:56;;;;;;;;;;;36.30;4.30;;;;;;5048021;28;19972;-68
2022/07/18 08:01:22;;;;;;;;;;;36.60;4.20;;;;;;5050301;28;20042;-68
2022/07/18 08:03:50;;;;;;;;;;;36.60;3.80;;;;;;5049511;28;19967;-69
2022/07/18 08:06:16;;;;;;;;;;;36.50;4.10;;;;;;5048059;28;19924;-69
2022/07/18 08:08:43;;;;;;;;;;;36.40;3.50;;;;;;5050258;28;20015;-68
2022/07/18 08:11:10;;;;;;;;;;;36.10;3.20;;;;;;5049883;28;20012;-67
2022/07/18 08:13:37;;;;;;;;;;;36.00;3.30;;;;;;5050739;28;19931;-67
2022/07/18 08:16:05;;;;;;;;;;;36.20;3.40;;;;;;5048188;28;19983;-67
2022/07/18 08:18:32;;;;;;;;;;;36.00;3.30;;;;;;5043237;28;20008;-68
2022/07/18 08:20:58;;;;;;;;;;;35.80;3.20;;;;;;5047657;28;20019;-68
2022/07/18 08:23:25;;;;;;;;;;;35.60;3.00;;;;;;5048579;28;20395;-68
2022/07/18 08:25:52;;;;;;;;;;;36.50;2.30;;;;;;5048717;28;20023;-68
2022/07/18 08:28:18;;;;;;;;;;;36.60;1.60;;;;;;5049222;28;19963;-68
2022/07/18 08:30:45;;;;;;;;;;;35.90;2.20;;;;;;5047727;28;19929;-68
2022/07/18 08:33:13;;;;;;;;;;;35.70;3.00;;;;;;5046498;28;19924;-68
2022/07/18 08:35:40;;;;;;;;;;;36.40;1.70;;;;;;5046968;28;20379;-68
2022/07/18 08:38:07;;;;;;;;;;;36.20;1.00;;;;;;5047460;28;20325;-68
2022/07/18 08:40:35;;;;;;;;;;;36.00;1.00;;;;;;5046253;28;19972;-68
2022/07/18 08:43:01;;;;;;;;;;;36.60;1.00;;;;;;5050223;28;19932;-68
2022/07/18 08:45:28;;;;;;;;;;;36.00;1.00;;;;;;5043404;28;19964;-68
2022/07/18 08:47:55;;;;;;;;;;;36.00;1.00;;;;;;5038814;28;20360;-68
2022/07/18 08:50:24;;;;;;;;;;;36.70;1.00;;;;;;5044207;28;20351;-66
2022/07/18 08:52:50;;;;;;;;;;;36.50;1.00;;;;;;5044377;28;19954;-67
2022/07/18 08:55:17;;;;;;;;;;;35.90;1.00;;;;;;5042535;28;20483;-67
2022/07/18 08:57:44;;;;;;;;;;;35.90;1.00;;;;;;5042096;28;20269;-67
2022/07/18 09:00:13;;;;;;;;;;;36.30;1.00;;;;;;5045569;28;20296;-68
2022/07/18 09:02:41;;;;;;;;;;;37.10;1.00;;;;;;5028875;28;19956;-73
2022/07/18 09:05:08;;;;;;;;;;;;;;;;;;5039208;28;19924;-74
2022/07/18 09:07:35;;;;;;;;;;;;;;;;;;5045559;28;19925;-72
2022/07/18 09:10:02;;;;;;;;;;;;;;;;;;5038807;28;20380;-71
2022/07/18 09:12:30;;;;;;;;;;;;;;;;;;5046687;28;19963;-72
2022/07/18 09:14:57;;;;;;;;;;;;;;;;;;5046347;28;19957;-74
2022/07/18 09:17:24;;;;;;;;;;;;;;;;;;5045186;28;19925;-71
2022/07/18 09:19:51;;;;;;;;;;;;;;;;;;5047095;28;20501;-72
2022/07/18 09:22:19;;;;;;;;;;;;;;;;;;5050210;28;19979;-71
2022/07/18 09:24:45;;;;;;;;;;;;;;;;;;5046881;28;19925;-72
2022/07/18 09:27:12;;;;;;;;;;;;;;;;;;5050535;28;19931;-72
2022/07/18 09:29:40;;;;;;;;;;;;;;;;;;5047653;28;19931;-72
2022/07/18 09:32:07;;;;;;;;;;;;;;;;;;5053104;28;19967;-72
2022/07/18 09:34:34;;;;;;;;;;;;;;;;;;5051240;28;19932;-71
2022/07/18 09:37:01;;;;;;;;;;;;;;;;;;5052981;28;19964;-71
2022/07/18 09:39:29;;;;;;;;;;;;;;;;;;5052168;28;19982;-72
2022/07/18 09:41:56;;;;;;;;;;;;;;;;;;5053931;28;19928;-71
2022/07/18 09:44:23;;;;;;;;;;;;;;;;;;5051960;28;20015;-72
2022/07/18 09:46:50;;;;;;;;;;;;;;;;;;5050507;28;20015;-72
2022/07/18 09:49:17;;;;;;;;;;;;;;;;;;5051328;28;19925;-72
2022/07/18 09:51:44;;;;;;;;;;;;;;;;;;5050949;28;22956;-73
2022/07/18 09:54:11;;;;;;;;;;;;;;;;;;5050897;28;20002;-73
2022/07/18 09:56:42;;;;;;;;;;;;;;;;;;5052960;28;19972;-72
2022/07/18 09:59:09;;;;;;;;;;;;;;;;;;5051452;28;20032;-72
2022/07/18 10:01:36;;;;;;;;;;;;;;;;;;5051946;28;19979;-71
2022/07/18 10:04:03;;;;;;;;;;;;;;;;;;5051613;28;20349;-72
2022/07/18 10:06:30;;;;;;;;;;;;;;;;;;5053158;28;19931;-72
2022/07/18 10:08:57;;;;;;;;;;;;;;;;;;5050448;28;19929;-72
2022/07/18 10:11:24;;;;;;;;;;;;;;;;;;5052469;28;19924;-72
2022/07/18 10:13:51;;;;;;;;;;;;;;;;;;5050189;28;20352;-72
2022/07/18 10:16:18;;;;;;;;;;;;;;;;;;5052688;28;19968;-73
2022/07/18 10:18:45;;;;;;;;;;;;;;;;;;5049224;28;20363;-71
2022/07/18 10:21:12;;;;;;;;;;;;;;;;;;5052190;28;19960;-72
2022/07/18 10:23:39;;;;;;;;;;;;;;;;;;5051850;28;19925;-73
2022/07/18 10:26:08;;;;;;;;;;;33.10;1.00;;;;;;5052294;28;19935;-72
2022/07/18 10:28:35;;;;;;;;;;;33.00;1.00;;;;;;5051835;28;19929;-72
2022/07/18 10:31:13;;;;;;;;;;;32.70;1.00;;;;;;5049213;28;20402;-72
2022/07/18 10:33:41;;;;;;;;;;;32.70;1.00;;;;;;5052606;28;19972;-72
2022/07/18 10:36:09;;;;;;;;;;;32.50;1.00;;;;;;5048735;28;20009;-73
2022/07/18 10:38:36;;;;;;;;;;;32.60;1.00;;;;;;5052597;28;20515;-72
2022/07/18 10:41:08;;;;;;;;;;;32.50;1.00;;;;;;5051931;28;19929;-72
2022/07/18 10:43:44;;;;;;;;;;;32.80;1.00;;;;;;5052286;28;19953;-71
2022/07/18 10:46:12;;;;;;;;;;;32.70;1.00;;;;;;5051623;28;20430;-72
2022/07/18 10:48:49;;;;;;;;;;;32.20;1.00;;;;;;5049059;28;19968;-71
2022/07/18 10:51:16;;;;;;;;;;;31.90;1.00;;;;;;5047285;28;20023;-71
2022/07/18 10:53:56;;;;;;;;;;;32.10;1.00;;;;;;5052389;28;20392;-71
2022/07/18 10:56:46;;;;;;;;;;;32.40;1.00;;;;;;5041105;28;19928;-71
2022/07/18 10:59:16;;;;;;;;;;;32.60;1.00;;;;;;5045255;28;19979;-71
2022/07/18 11:01:48;;;;;;;;;;;32.80;1.00;;;;;;5053329;28;19931;-70
2022/07/18 11:04:26;;;;;;;;;;;32.80;1.00;;;;;;5052052;28;20028;-71
2022/07/18 11:06:56;;;;;;;;;;;32.60;1.00;;;;;;5053659;28;19986;-71
2022/07/18 11:09:30;;;;;;;;;;;32.50;1.00;;;;;;5049206;28;19932;-73
2022/07/18 11:12:20;;;;;;;;;;;32.60;1.00;;;;;;5050984;28;20012;-72
2022/07/18 11:15:00;;;;;;;;;;;32.60;1.00;;;;;;5049244;28;20020;-72
2022/07/18 11:17:41;;;;;;;;;;;32.50;1.00;;;;;;5051092;28;19929;-72
2022/07/18 11:20:24;;;;;;;;;;;32.60;1.00;;;;;;5049983;28;20414;-72
2022/07/18 11:22:51;;;;;;;;;;;32.50;1.00;;;;;;5049034;28;20019;-72
2022/07/18 11:25:18;;;;;;;;;;;32.50;1.00;;;;;;5049166;28;20476;-71
2022/07/18 11:27:46;;;;;;;;;;;32.50;1.00;;;;;;5047197;28;19925;-71
2022/07/18 11:30:16;;;;;;;;;;;32.70;1.00;;;;;;5050409;28;20389;-71
2022/07/18 11:32:43;;;;;;;;;;;32.80;1.00;;;;;;5052554;28;20336;-72
2022/07/18 11:35:11;;;;;;;;;;;32.70;1.00;;;;;;5050196;28;20388;-71
2022/07/18 11:37:38;;;;;;;;;;;32.80;1.00;;;;;;5033136;28;19925;-72
2022/07/18 11:40:05;;;;;;;;;;;32.90;1.00;;;;;;5050778;28;19932;-72
2022/07/18 11:42:35;;;;;;;;;;;33.10;1.00;;;;;;5049097;28;20023;-72
2022/07/18 11:45:03;;;;;;;;;;;33.00;1.00;;;;;;5042100;28;19925;-72
2022/07/18 11:47:30;;;;;;;;;;;33.10;1.00;;;;;;5044731;28;19943;-71
2022/07/18 11:49:58;;;;;;;;;;;33.10;1.00;;;;;;5045327;28;19932;-71
2022/07/18 11:52:24;;;;;;;;;;;32.90;1.00;;;;;;5046922;28;19982;-72
2022/07/18 11:54:51;;;;;;;;;;;33.10;1.00;;;;;;5045062;28;19929;-71
2022/07/18 11:57:26;;;;;;;;;;;33.00;1.00;;;;;;5045733;28;19932;-72
2022/07/18 11:59:53;;;;;;;;;;;33.00;1.00;;;;;;5044750;28;20012;-71
2022/07/18 12:02:35;;;;;;;;;;;32.90;1.00;;;;;;5046575;28;19964;-72
2022/07/18 12:05:03;;;;;;;;;;;33.10;1.00;;;;;;5027180;28;19968;-72
2022/07/18 12:07:29;;;;;;;;;;;33.20;1.00;;;;;;5047395;28;20463;-72
2022/07/18 12:09:56;;;;;;;;;;;33.10;1.00;;;;;;5047643;28;20082;-81
2022/07/18 12:12:24;;;;;;;;;;;33.20;1.00;;;;;;5050124;28;20048;-81
2022/07/18 12:15:00;;;;;;;;;;;33.20;1.00;;;;;;5122942;27;19973;-81
2022/07/18 12:17:27;;;;;;;;;;;33.10;1.00;;;;;;5111903;27;20008;-80
2022/07/18 12:20:09;;;;;;;;;;;33.20;1.00;;;;;;5117881;27;19931;-81
2022/07/18 12:22:35;;;;;;;;;;;33.20;1.00;;;;;;5112290;27;19959;-78
2022/07/18 12:25:02;;;;;;;;;;;33.30;1.00;;;;;;5112033;27;20015;-79
2022/07/18 12:27:35;;;;;;;;;;;33.50;1.00;;;;;;5113414;27;19927;-78
2022/07/18 12:30:08;;;;;;;;;;;33.50;1.00;;;;;;5110267;27;19923;-80
2022/07/18 12:32:39;;;;;;;;;;;33.70;1.00;;;;;;5105705;27;19924;-80
2022/07/18 12:35:08;;;;;;;;;;;33.80;1.00;;;;;;5112946;27;20011;-79
2022/07/18 12:37:35;;;;;;;;;;;33.70;1.00;;;;;;5108692;27;19967;-79
2022/07/18 12:40:02;;;;;;;;;;;33.50;1.00;;;;;;5118361;27;20399;-79
2022/07/18 12:42:30;;;;;;;;;;;33.40;1.00;;;;;;5112571;27;19974;-78
2022/07/18 12:44:57;;;;;;;;;;;33.60;1.00;;;;;;5110477;27;20359;-79
2022/07/18 12:47:25;;;;;;;;;;;33.90;1.00;;;;;;5111651;27;20008;-79
2022/07/18 12:49:52;;;;;;;;;;;34.20;1.00;;;;;;5112629;27;20014;-80
2022/07/18 12:52:18;;;;;;;;;;;34.40;1.00;;;;;;5115176;27;20450;-77
2022/07/18 12:54:45;;;;;;;;;;;34.10;1.00;;;;;;5108945;27;19924;-80
2022/07/18 12:57:12;;;;;;;;;;;34.00;1.00;;;;;;5112115;27;19928;-81
2022/07/18 12:59:39;;;;;;;;;;;34.00;1.00;;;;;;5112825;27;19936;-80
2022/07/18 13:02:06;;;;;;;;;;;33.90;1.00;;;;;;5108336;27;19939;-79
2022/07/18 13:04:34;;;;;;;;;;;34.00;1.00;;;;;;5106751;27;19924;-81
2022/07/18 13:07:01;;;;;;;;;;;34.10;1.00;;;;;;5112807;27;20276;-78
2022/07/18 13:09:27;;;;;;;;;;;34.20;1.00;;;;;;5107053;27;19924;-79
2022/07/18 13:11:54;;;;;;;;;;;33.80;1.00;;;;;;5106758;27;20026;-79
2022/07/18 13:14:21;;;;;;;;;;;33.90;1.00;;;;;;5114315;28;20344;-80
2022/07/18 13:16:49;;;;;;;;;;;34.10;1.00;;;;;;5106074;28;19966;-79
2022/07/18 13:19:16;;;;;;;;;;;34.10;1.00;;;;;;5113412;28;19964;-79
2022/07/18 13:21:45;;;;;;;;;;;33.80;1.00;;;;;;5115835;28;19923;-80
2022/07/18 13:24:12;;;;;;;;;;;33.60;1.00;;;;;;5106737;27;20014;-79
2022/07/18 13:26:39;;;;;;;;;;;33.90;1.00;;;;;;5094591;28;20008;-80
2022/07/18 13:29:06;;;;;;;;;;;34.10;1.00;;;;;;5098939;28;20043;-79
2022/07/18 13:31:33;;;;;;;;;;;34.20;1.00;;;;;;5093182;27;20249;-80
2022/07/18 13:33:59;;;;;;;;;;;34.00;1.00;;;;;;5096723;27;19996;-80
2022/07/18 13:36:26;;;;;;;;;;;34.00;1.00;;;;;;5097284;27;19932;-78
2022/07/18 13:38:55;;;;;;;;;;;33.80;1.00;;;;;;5094046;27;20409;-79
2022/07/18 13:41:22;;;;;;;;;;;33.90;1.00;;;;;;5088418;27;19928;-80
2022/07/18 13:43:49;;;;;;;;;;;34.20;1.00;;;;;;5102355;27;19977;-80
2022/07/18 13:46:16;;;;;;;;;;;34.40;1.00;;;;;;5099569;27;19924;-79
2022/07/18 13:48:44;;;;;;;;;;;34.30;1.00;;;;;;5097346;27;19931;-79
2022/07/18 13:51:10;;;;;;;;;;;34.10;1.00;;;;;;5100325;28;19939;-79
2022/07/18 13:53:37;;;;;;;;;;;33.90;1.00;;;;;;5092272;28;19931;-75
2022/07/18 13:56:05;;;;;;;;;;;34.10;1.00;;;;;;5100946;27;20070;-78
2022/07/18 13:58:33;;;;;;;;;;;34.10;1.00;;;;;;5093226;27;19951;-78
2022/07/18 14:01:00;;;;;;;;;;;34.30;1.00;;;;;;5094345;27;20015;-75
2022/07/18 14:03:26;;;;;;;;;;;34.20;1.00;;;;;;5096657;27;19940;-77
2022/07/18 14:05:53;;;;;;;;;;;34.40;1.00;;;;;;5103848;27;20079;-76
2022/07/18 14:08:20;;;;;;;;;;;34.50;1.00;;;;;;5097170;28;19967;-78
2022/07/18 14:10:47;;;;;;;;;;;34.40;1.00;;;;;;5097006;27;19973;-80
2022/07/18 14:13:15;;;;;;;;;;;34.40;1.00;;;;;;5097294;27;19927;-78
2022/07/18 14:15:41;;;;;;;;;;;34.50;1.00;;;;;;5096893;27;19959;-81
2022/07/18 14:18:08;;;;;;;;;;;34.70;1.00;;;;;;5111413;28;20035;-76
2022/07/18 14:20:35;;;;;;;;;;;34.40;1.00;;;;;;5094957;28;20014;-79
2022/07/18 14:23:02;;;;;;;;;;;34.70;1.00;;;;;;5097211;28;19928;-78
2022/07/18 14:25:29;;;;;;;;;;;34.80;1.00;;;;;;5102692;27;19930;-78
2022/07/18 14:27:56;;;;;;;;;;;35.00;1.00;;;;;;5091716;28;19959;-79
2022/07/18 14:30:24;;;;;;;;;;;34.80;1.00;;;;;;5097917;28;19938;-79
2022/07/18 14:32:51;;;;;;;;;;;35.00;1.00;;;;;;5093087;27;19928;-79
2022/07/18 14:35:18;;;;;;;;;;;35.00;1.00;;;;;;5093051;28;20020;-76